createdAt,value
2022-10-24T00:00:18.298Z,7.70
2022-10-24T00:01:22.784Z,7.36
2022-10-24T00:02:24.977Z,8.50
2022-10-24T00:03:28.738Z,7.50
2022-10-24T00:04:34.213Z,6.80
2022-10-24T00:05:36.942Z,5.90
2022-10-24T00:06:40.794Z,7.00
2022-10-24T00:07:43.027Z,6.60
2022-10-24T00:08:45.633Z,5.20
2022-10-24T00:09:47.421Z,6.40
2022-10-24T00:10:50.424Z,7.89
2022-10-24T00:11:52.562Z,6.80
2022-10-24T00:12:55.226Z,6.22
2022-10-24T00:13:57.487Z,6.60
2022-10-24T00:14:59.579Z,6.60
2022-10-24T00:16:01.456Z,6.00
2022-10-24T00:17:04.050Z,6.10
2022-10-24T00:18:06.187Z,6.00
2022-10-24T00:19:08.887Z,5.90
2022-10-24T00:20:13.736Z,6.00
2022-10-24T00:21:16.031Z,5.70
2022-10-24T00:22:17.819Z,7.00
2022-10-24T00:23:19.546Z,6.33
2022-10-24T00:24:21.585Z,6.56
2022-10-24T00:25:23.428Z,6.33
2022-10-24T00:26:25.361Z,8.00
2022-10-24T00:27:27.181Z,4.67
2022-10-24T00:28:30.335Z,6.89
2022-10-24T00:29:32.105Z,6.80
2022-10-24T00:30:34.033Z,6.44
2022-10-24T00:31:36.742Z,6.44
2022-10-24T00:32:38.608Z,6.10
2022-10-24T00:33:42.172Z,7.22
2022-10-24T00:34:45.227Z,6.80
2022-10-24T00:35:47.490Z,6.90
2022-10-24T00:36:58.013Z,6.80
2022-10-24T00:38:00.205Z,5.10
2022-10-24T00:39:02.367Z,4.22
2022-10-24T00:40:06.439Z,6.10
2022-10-24T00:41:11.972Z,7.10
2022-10-24T00:42:13.799Z,6.60
2022-10-24T00:43:19.730Z,6.67
2022-10-24T00:44:26.003Z,5.90
2022-10-24T00:45:50.518Z,8.30
2022-10-24T00:47:14.494Z,5.90
2022-10-24T00:48:25.399Z,7.20
2022-10-24T00:49:37.215Z,6.30
2022-10-24T00:50:39.291Z,6.30
2022-10-24T00:51:42.464Z,5.70
2022-10-24T00:52:47.400Z,7.36
2022-10-24T00:53:52.058Z,6.00
2022-10-24T00:54:56.483Z,7.30
2022-10-24T00:56:01.589Z,7.40
2022-10-24T00:57:22.505Z,6.80
2022-10-24T00:58:29.240Z,6.20
2022-10-24T00:59:35.402Z,6.30
2022-10-24T01:00:38.012Z,6.60
2022-10-24T01:01:43.006Z,7.00
2022-10-24T01:02:46.463Z,6.00
2022-10-24T01:03:48.490Z,6.20
2022-10-24T01:04:50.241Z,6.78
2022-10-24T01:06:10.752Z,5.56
2022-10-24T01:07:48.931Z,7.00
2022-10-24T01:09:04.340Z,6.70
2022-10-24T01:10:13.054Z,6.70
2022-10-24T01:11:21.340Z,7.50
2022-10-24T01:12:59.185Z,6.70
2022-10-24T01:14:04.791Z,6.60
2022-10-24T01:15:22.410Z,4.00
2022-10-24T01:16:43.239Z,5.30
2022-10-24T01:17:57.661Z,6.40
2022-10-24T01:19:26.819Z,6.60
2022-10-24T01:20:35.598Z,5.40
2022-10-24T01:21:44.095Z,6.00
2022-10-24T01:23:05.759Z,6.20
2022-10-24T01:24:41.741Z,6.70
2022-10-24T01:25:47.219Z,5.80
2022-10-24T01:26:59.008Z,6.40
2022-10-24T01:28:24.903Z,7.20
2022-10-24T01:29:52.117Z,6.40
2022-10-24T01:31:06.694Z,5.20
2022-10-24T01:32:17.935Z,5.70
2022-10-24T01:33:38.572Z,5.60
2022-10-24T01:34:49.958Z,6.30
2022-10-24T01:36:04.721Z,5.90
2022-10-24T01:37:14.917Z,4.00
2022-10-24T01:38:35.713Z,6.20
2022-10-24T01:39:41.799Z,5.00
2022-10-24T01:40:47.552Z,6.50
2022-10-24T01:41:51.076Z,7.00
2022-10-24T01:42:56.722Z,6.00
2022-10-24T01:44:26.806Z,5.60
2022-10-24T01:45:32.296Z,5.00
2022-10-24T01:46:46.554Z,6.10
2022-10-24T01:47:52.144Z,2.90
2022-10-24T01:49:06.904Z,5.40
2022-10-24T01:50:12.881Z,5.00
2022-10-24T01:51:17.896Z,5.80
2022-10-24T01:52:20.842Z,4.80
2022-10-24T01:53:25.101Z,5.90
2022-10-24T01:54:29.074Z,5.20
2022-10-24T01:55:33.104Z,4.70
2022-10-24T01:56:35.303Z,4.60
2022-10-24T01:57:37.679Z,5.80
2022-10-24T01:58:39.659Z,5.50
2022-10-24T01:59:48.505Z,4.44
2022-10-24T02:00:53.752Z,5.40
2022-10-24T02:02:05.779Z,6.20
2022-10-24T02:03:17.259Z,6.20
2022-10-24T02:04:22.080Z,5.00
2022-10-24T02:05:30.525Z,2.30
2022-10-24T02:06:36.627Z,4.90
2022-10-24T02:07:43.044Z,5.80
2022-10-24T02:08:48.625Z,6.00
2022-10-24T02:09:54.263Z,5.80
2022-10-24T02:10:59.761Z,5.90
2022-10-24T02:12:03.635Z,6.40
2022-10-24T02:13:14.873Z,7.90
2022-10-24T02:14:23.143Z,6.40
2022-10-24T02:15:28.645Z,5.90
2022-10-24T02:16:31.794Z,6.10
2022-10-24T02:17:33.941Z,6.09
2022-10-24T02:18:38.484Z,6.80
2022-10-24T02:19:40.808Z,5.70
2022-10-24T02:21:05.551Z,6.50
2022-10-24T02:22:29.250Z,7.30
2022-10-24T02:23:46.676Z,5.70
2022-10-24T02:26:12.551Z,7.60
2022-10-24T02:27:21.055Z,4.60
2022-10-24T02:28:25.677Z,6.90
2022-10-24T02:29:33.995Z,6.80
2022-10-24T02:30:39.564Z,7.20
2022-10-24T02:31:45.070Z,7.50
2022-10-24T02:32:50.587Z,4.80
2022-10-24T02:33:54.399Z,6.80
2022-10-24T02:34:58.076Z,7.10
2022-10-24T02:36:02.977Z,6.60
2022-10-24T02:37:07.935Z,8.00
2022-10-24T02:38:18.860Z,6.60
2022-10-24T02:39:22.484Z,7.00
2022-10-24T02:40:25.336Z,6.20
2022-10-24T02:41:33.730Z,7.90
2022-10-24T02:42:38.451Z,6.60
2022-10-24T02:43:42.075Z,7.30
2022-10-24T02:44:46.375Z,6.70
2022-10-24T02:45:51.677Z,8.40
2022-10-24T02:46:57.365Z,5.70
2022-10-24T02:48:02.846Z,7.70
2022-10-24T02:49:06.256Z,5.00
2022-10-24T02:50:09.558Z,5.20
2022-10-24T02:51:14.559Z,4.90
2022-10-24T02:52:17.684Z,4.20
2022-10-24T02:53:22.617Z,7.40
2022-10-24T02:54:24.694Z,7.00
2022-10-24T02:55:26.830Z,7.33
2022-10-24T02:56:29.551Z,7.10
2022-10-24T02:57:31.441Z,6.70
2022-10-24T02:58:33.080Z,4.67
2022-10-24T02:59:34.819Z,5.22
2022-10-24T03:00:36.705Z,5.33
2022-10-24T03:01:38.622Z,7.00
2022-10-24T03:02:40.891Z,6.89
2022-10-24T03:03:43.043Z,8.80
2022-10-24T03:04:44.923Z,7.40
2022-10-24T03:05:47.723Z,5.89
2022-10-24T03:06:49.746Z,7.73
2022-10-24T03:07:51.495Z,3.67
2022-10-24T03:08:53.338Z,6.33
2022-10-24T03:09:54.996Z,6.33
2022-10-24T03:10:57.280Z,6.44
2022-10-24T03:11:59.257Z,6.70
2022-10-24T03:13:01.134Z,6.70
2022-10-24T03:14:02.968Z,7.11
2022-10-24T03:15:06.095Z,3.67
2022-10-24T03:16:11.635Z,6.70
2022-10-24T03:17:12.625Z,7.90
2022-10-24T03:18:15.571Z,6.20
2022-10-24T03:19:17.498Z,4.70
2022-10-24T03:20:19.493Z,8.80
2022-10-24T03:21:21.545Z,8.33
2022-10-24T03:22:24.721Z,2.90
2022-10-24T03:23:27.664Z,6.90
2022-10-24T03:24:43.420Z,7.20
2022-10-24T03:25:33.511Z,8.30
2022-10-24T03:26:35.417Z,8.50
2022-10-24T03:27:37.855Z,6.33
2022-10-24T03:28:39.968Z,7.10
2022-10-24T03:29:42.383Z,7.90
2022-10-24T03:30:44.369Z,7.40
2022-10-24T03:31:46.292Z,8.67
2022-10-24T03:32:48.337Z,7.56
2022-10-24T03:33:50.440Z,7.60
2022-10-24T03:34:52.641Z,7.44
2022-10-24T03:35:55.064Z,4.70
2022-10-24T03:36:57.041Z,8.40
2022-10-24T03:37:59.263Z,6.44
2022-10-24T03:39:01.145Z,6.80
2022-10-24T03:40:03.738Z,7.20
2022-10-24T03:41:07.087Z,7.50
2022-10-24T03:42:08.947Z,6.40
2022-10-24T03:43:10.597Z,9.44
2022-10-24T03:44:12.618Z,6.89
2022-10-24T03:45:14.904Z,6.60
2022-10-24T03:46:17.728Z,8.80
2022-10-24T03:47:19.376Z,7.56
2022-10-24T03:48:21.051Z,7.56
2022-10-24T03:49:22.865Z,7.89
2022-10-24T03:50:24.913Z,8.90
2022-10-24T03:51:26.538Z,7.56
2022-10-24T03:52:28.640Z,7.22
2022-10-24T03:53:31.436Z,7.20
2022-10-24T03:54:33.551Z,8.27
2022-10-24T03:55:35.556Z,8.80
2022-10-24T03:56:38.030Z,7.50
2022-10-24T03:57:40.012Z,8.30
2022-10-24T03:58:42.198Z,4.89
2022-10-24T03:59:44.251Z,7.40
2022-10-24T04:00:46.083Z,9.20
2022-10-24T04:01:48.797Z,7.30
2022-10-24T04:02:51.089Z,7.00
2022-10-24T04:03:53.080Z,7.40
2022-10-24T04:04:54.821Z,7.78
2022-10-24T04:05:56.542Z,7.11
2022-10-24T04:06:59.062Z,5.44
2022-10-24T04:08:02.527Z,8.70
2022-10-24T04:09:04.910Z,8.50
2022-10-24T04:10:08.118Z,6.70
2022-10-24T04:11:10.119Z,7.20
2022-10-24T04:12:11.938Z,8.20
2022-10-24T04:13:14.174Z,5.89
2022-10-24T04:14:16.075Z,6.40
2022-10-24T04:15:17.964Z,9.56
2022-10-24T04:16:21.312Z,8.90
2022-10-24T04:17:23.332Z,8.70
2022-10-24T04:18:25.099Z,9.67
2022-10-24T04:19:27.055Z,7.67
2022-10-24T04:20:29.030Z,8.89
2022-10-24T04:21:30.872Z,9.22
2022-10-24T04:22:33.294Z,8.78
2022-10-24T04:23:35.429Z,7.00
2022-10-24T04:24:37.430Z,10.10
2022-10-24T04:25:39.928Z,9.80
2022-10-24T04:26:42.337Z,7.50
2022-10-24T04:27:44.646Z,6.90
2022-10-24T04:28:46.580Z,7.40
2022-10-24T04:29:49.161Z,5.56
2022-10-24T04:30:56.480Z,8.80
2022-10-24T04:31:58.955Z,7.00
2022-10-24T04:33:00.787Z,9.20
2022-10-24T04:34:02.679Z,10.22
2022-10-24T04:35:06.376Z,10.30
2022-10-24T04:36:09.147Z,8.30
2022-10-24T04:37:11.437Z,8.30
2022-10-24T04:38:13.692Z,8.90
2022-10-24T04:39:18.348Z,9.30
2022-10-24T04:40:20.386Z,10.00
2022-10-24T04:41:22.528Z,10.80
2022-10-24T04:42:29.702Z,10.60
2022-10-24T04:43:32.065Z,9.00
2022-10-24T04:44:35.102Z,8.30
2022-10-24T04:45:37.643Z,9.90
2022-10-24T04:46:39.608Z,7.80
2022-10-24T04:47:41.744Z,5.56
2022-10-24T04:48:44.170Z,10.00
2022-10-24T04:49:46.548Z,10.00
2022-10-24T04:50:48.521Z,9.40
2022-10-24T04:51:50.747Z,9.50
2022-10-24T04:52:52.494Z,9.60
2022-10-24T04:53:54.430Z,10.00
2022-10-24T04:54:56.058Z,9.33
2022-10-24T04:55:57.798Z,9.67
2022-10-24T04:57:00.443Z,9.56
2022-10-24T04:58:03.067Z,9.40
2022-10-24T04:59:05.445Z,8.40
2022-10-24T05:00:08.273Z,11.10
2022-10-24T05:01:10.601Z,9.60
2022-10-24T05:02:13.184Z,10.10
2022-10-24T05:03:17.142Z,10.60
2022-10-24T05:04:19.037Z,9.00
2022-10-24T05:05:21.311Z,7.70
2022-10-24T05:06:23.194Z,9.10
2022-10-24T05:07:25.602Z,8.11
2022-10-24T05:08:27.523Z,8.00
2022-10-24T05:09:29.454Z,8.00
2022-10-24T05:10:31.466Z,7.11
2022-10-24T05:11:33.397Z,9.22
2022-10-24T05:12:35.231Z,9.89
2022-10-24T05:13:38.735Z,8.78
2022-10-24T05:14:40.669Z,10.40
2022-10-24T05:15:43.409Z,10.00
2022-10-24T05:16:45.745Z,8.00
2022-10-24T05:17:47.884Z,9.60
2022-10-24T05:18:49.856Z,10.50
2022-10-24T05:19:51.969Z,10.60
2022-10-24T05:20:58.478Z,9.40
2022-10-24T05:22:00.509Z,8.90
2022-10-24T05:23:03.140Z,8.22
2022-10-24T05:24:05.118Z,10.50
2022-10-24T05:25:08.130Z,10.20
2022-10-24T05:26:11.150Z,9.30
2022-10-24T05:27:13.503Z,11.60
2022-10-24T05:28:15.772Z,9.80
2022-10-24T05:29:18.030Z,9.80
2022-10-24T05:30:21.214Z,9.50
2022-10-24T05:31:23.318Z,13.27
2022-10-24T05:32:25.704Z,13.30
2022-10-24T05:33:27.499Z,11.60
2022-10-24T05:34:29.261Z,6.44
2022-10-24T05:35:31.287Z,13.33
2022-10-24T05:36:33.115Z,15.00
2022-10-24T05:37:36.343Z,13.44
2022-10-24T05:38:38.302Z,13.00
2022-10-24T05:39:40.248Z,13.80
2022-10-24T05:40:42.187Z,11.89
2022-10-24T05:41:46.297Z,12.56
2022-10-24T05:42:49.053Z,9.90
2022-10-24T05:43:50.967Z,11.82
2022-10-24T05:44:53.906Z,14.67
2022-10-24T05:45:56.011Z,11.20
2022-10-24T05:46:59.244Z,11.70
2022-10-24T05:48:01.196Z,11.70
2022-10-24T05:49:03.245Z,10.56
2022-10-24T05:50:06.380Z,7.50
2022-10-24T05:51:08.330Z,10.64
2022-10-24T05:52:10.682Z,9.90
2022-10-24T05:53:14.636Z,10.00
2022-10-24T05:54:17.182Z,8.30
2022-10-24T05:55:19.021Z,10.50
2022-10-24T05:56:20.929Z,11.44
2022-10-24T05:57:23.045Z,10.44
2022-10-24T05:58:24.962Z,10.50
2022-10-24T05:59:28.009Z,9.50
2022-10-24T06:00:30.216Z,11.30
2022-10-24T06:01:32.828Z,9.40
2022-10-24T06:02:35.386Z,11.00
2022-10-24T06:03:37.374Z,10.00
2022-10-24T06:04:39.569Z,9.44
2022-10-24T06:05:41.376Z,10.50
2022-10-24T06:06:45.456Z,8.70
2022-10-24T06:07:47.934Z,11.30
2022-10-24T06:08:51.059Z,7.55
2022-10-24T06:09:53.112Z,11.70
2022-10-24T06:10:56.353Z,11.60
2022-10-24T06:11:58.558Z,10.50
2022-10-24T06:13:00.474Z,9.30
2022-10-24T06:14:03.118Z,11.22
2022-10-24T06:15:08.253Z,9.27
2022-10-24T06:16:11.939Z,11.70
2022-10-24T06:17:14.386Z,12.30
2022-10-24T06:18:16.363Z,9.80
2022-10-24T06:19:18.720Z,10.33
2022-10-24T06:20:20.704Z,10.70
2022-10-24T06:21:22.965Z,5.44
2022-10-24T06:22:25.141Z,9.40
2022-10-24T06:23:27.456Z,11.00
2022-10-24T06:24:29.695Z,11.00
2022-10-24T06:25:31.857Z,10.20
2022-10-24T06:26:34.340Z,9.60
2022-10-24T06:27:36.851Z,10.50
2022-10-24T06:28:38.554Z,10.00
2022-10-24T06:29:41.199Z,9.89
2022-10-24T06:30:43.098Z,10.70
2022-10-24T06:31:44.933Z,9.11
2022-10-24T06:32:47.273Z,4.67
2022-10-24T06:33:49.323Z,9.70
2022-10-24T06:34:51.538Z,9.33
2022-10-24T06:35:53.259Z,11.20
2022-10-24T06:36:56.124Z,7.33
2022-10-24T06:37:58.565Z,7.82
2022-10-24T06:39:00.347Z,8.90
2022-10-24T06:40:02.558Z,10.22
2022-10-24T06:41:10.213Z,8.20
2022-10-24T06:42:12.201Z,9.90
2022-10-24T06:43:14.901Z,8.80
2022-10-24T06:44:17.487Z,9.90
2022-10-24T06:45:20.316Z,10.30
2022-10-24T06:46:22.767Z,9.00
2022-10-24T06:47:24.651Z,8.80
2022-10-24T06:48:27.002Z,9.78
2022-10-24T06:49:28.813Z,9.20
2022-10-24T06:50:31.088Z,10.20
2022-10-24T06:51:32.993Z,9.20
2022-10-24T06:52:36.900Z,10.70
2022-10-24T06:53:38.605Z,8.40
2022-10-24T06:54:40.353Z,8.11
2022-10-24T06:55:42.104Z,8.56
2022-10-24T06:56:44.654Z,9.20
2022-10-24T06:57:47.071Z,8.80
2022-10-24T06:58:49.098Z,7.10
2022-10-24T06:59:50.808Z,8.00
2022-10-24T07:00:53.209Z,8.11
2022-10-24T07:01:55.415Z,8.70
2022-10-24T07:02:57.278Z,8.30
2022-10-24T07:03:58.913Z,9.22
2022-10-24T07:05:00.722Z,8.56
2022-10-24T07:06:11.521Z,6.67
2022-10-24T07:07:19.273Z,9.30
2022-10-24T07:08:22.122Z,8.90
2022-10-24T07:09:23.874Z,7.73
2022-10-24T07:10:25.932Z,9.10
2022-10-24T07:11:28.785Z,8.11
2022-10-24T07:12:30.804Z,7.60
2022-10-24T07:13:33.164Z,7.70
2022-10-24T07:14:35.059Z,8.70
2022-10-24T07:15:37.033Z,6.80
2022-10-24T07:16:39.259Z,7.90
2022-10-24T07:17:45.212Z,8.70
2022-10-24T07:18:47.954Z,1.10
2022-10-24T07:19:54.189Z,9.20
2022-10-24T07:21:06.449Z,6.40
2022-10-24T07:22:09.065Z,6.90
2022-10-24T07:23:11.099Z,8.00
2022-10-24T07:24:13.469Z,10.40
2022-10-24T07:25:16.699Z,9.30
2022-10-24T07:26:21.027Z,10.10
2022-10-24T07:27:23.473Z,9.50
2022-10-24T07:28:25.173Z,10.10
2022-10-24T07:29:26.951Z,12.89
2022-10-24T07:30:29.034Z,13.50
2022-10-24T07:31:33.539Z,13.00
2022-10-24T07:32:35.527Z,9.30
2022-10-24T07:33:37.475Z,13.11
2022-10-24T07:34:40.424Z,11.44
2022-10-24T07:35:44.012Z,11.00
2022-10-24T07:36:45.993Z,11.90
2022-10-24T07:37:48.484Z,11.89
2022-10-24T07:38:53.514Z,8.00
2022-10-24T07:39:55.466Z,8.60
2022-10-24T07:40:57.464Z,9.10
2022-10-24T07:41:59.470Z,8.22
2022-10-24T07:43:01.199Z,8.80
2022-10-24T07:44:03.138Z,5.89
2022-10-24T07:45:06.514Z,7.33
2022-10-24T07:46:10.724Z,9.70
2022-10-24T07:47:13.239Z,7.80
2022-10-24T07:48:15.234Z,8.80
2022-10-24T07:49:18.392Z,8.10
2022-10-24T07:50:20.413Z,8.00
2022-10-24T07:51:22.919Z,7.56
2022-10-24T07:52:24.699Z,7.50
2022-10-24T07:53:26.469Z,7.44
2022-10-24T07:54:29.730Z,0.33
2022-10-24T07:55:32.793Z,8.80
2022-10-24T07:56:35.478Z,7.50
2022-10-24T07:57:37.449Z,6.80
2022-10-24T07:58:39.875Z,8.33
2022-10-24T07:59:42.675Z,6.90
2022-10-24T08:00:46.220Z,8.30
2022-10-24T08:01:49.142Z,8.60
2022-10-24T08:02:51.773Z,8.40
2022-10-24T08:03:55.113Z,8.20
2022-10-24T08:04:56.969Z,8.20
2022-10-24T08:05:58.832Z,6.56
2022-10-24T08:07:01.312Z,8.00
2022-10-24T08:08:27.640Z,7.70
2022-10-24T08:09:09.167Z,8.10
2022-10-24T08:10:16.137Z,8.30
2022-10-24T08:12:32.184Z,8.40
2022-10-24T08:13:34.962Z,8.50
2022-10-24T08:16:06.464Z,7.70
2022-10-24T08:17:09.836Z,7.40
2022-10-24T08:18:12.211Z,7.50
2022-10-24T08:19:16.202Z,7.20
2022-10-24T08:20:19.075Z,7.40
2022-10-24T08:21:23.289Z,6.60
2022-10-24T08:22:25.992Z,8.10
2022-10-24T08:23:28.611Z,7.30
2022-10-24T08:24:30.680Z,7.40
2022-10-24T08:25:32.593Z,6.20
2022-10-24T08:26:34.410Z,6.80
2022-10-24T08:27:37.341Z,8.44
2022-10-24T08:28:47.220Z,7.60
2022-10-24T08:29:49.582Z,7.40
2022-10-24T08:30:57.691Z,7.70
2022-10-24T08:31:59.985Z,9.00
2022-10-24T08:33:01.678Z,5.90
2022-10-24T08:34:03.809Z,7.78
2022-10-24T08:35:07.953Z,8.80
2022-10-24T08:36:22.800Z,7.60
2022-10-24T08:37:25.287Z,8.50
2022-10-24T08:38:29.571Z,8.60
2022-10-24T08:39:31.428Z,9.70
2022-10-24T08:40:33.976Z,10.00
2022-10-24T08:41:39.947Z,8.00
2022-10-24T08:42:43.272Z,7.60
2022-10-24T08:43:45.997Z,9.30
2022-10-24T08:44:47.772Z,8.50
2022-10-24T08:46:14.908Z,8.00
2022-10-24T08:48:49.896Z,9.00
2022-10-24T08:49:55.360Z,7.50
2022-10-24T08:51:01.114Z,8.40
2022-10-24T08:52:18.477Z,7.50
2022-10-24T08:53:24.364Z,6.10
2022-10-24T08:54:32.949Z,8.50
2022-10-24T08:55:49.740Z,8.40
2022-10-24T08:56:54.774Z,7.50
2022-10-24T08:57:59.502Z,6.20
2022-10-24T08:59:03.855Z,6.70
2022-10-24T09:00:22.672Z,3.20
2022-10-24T09:01:37.121Z,8.20
2022-10-24T09:02:42.230Z,6.60
2022-10-24T09:03:56.654Z,7.60
2022-10-24T09:04:56.003Z,7.40
2022-10-24T09:06:01.553Z,7.70
2022-10-24T09:07:05.133Z,8.30
2022-10-24T09:08:18.242Z,7.20
2022-10-24T09:09:27.292Z,8.50
2022-10-24T09:10:44.637Z,8.40
2022-10-24T09:11:55.927Z,7.10
2022-10-24T13:33:40.104Z,19.70
2022-10-24T13:34:52.070Z,20.60
2022-10-24T13:36:11.970Z,21.70
2022-10-24T13:37:17.651Z,21.70
2022-10-24T13:39:28.099Z,21.20
2022-10-24T13:40:33.152Z,17.70
2022-10-24T13:41:45.105Z,21.30
2022-10-24T13:43:06.841Z,20.40
2022-10-24T13:44:13.138Z,18.30
2022-10-24T13:45:24.167Z,17.90
2022-10-24T13:46:29.852Z,16.70
2022-10-24T13:47:38.505Z,17.30
2022-10-24T13:48:45.102Z,15.40
2022-10-24T13:49:53.434Z,17.60
2022-10-24T13:51:19.059Z,15.60
2022-10-24T13:52:27.577Z,14.50
2022-10-24T13:53:33.982Z,14.80
2022-10-24T13:54:38.372Z,15.20
2022-10-24T13:55:46.393Z,13.20
2022-10-24T13:56:48.879Z,14.20
2022-10-24T13:57:54.203Z,13.90
2022-10-24T13:58:56.268Z,14.50
2022-10-24T14:00:01.664Z,13.10
2022-10-24T14:01:08.889Z,13.60
2022-10-24T14:02:17.502Z,13.10
2022-10-24T14:03:23.032Z,13.20
2022-10-24T14:04:26.865Z,13.40
2022-10-24T14:05:35.090Z,12.90
2022-10-24T14:06:38.254Z,12.60
2022-10-24T14:07:41.207Z,12.70
2022-10-24T14:08:56.069Z,14.00
2022-10-24T14:09:57.207Z,12.40
2022-10-24T14:11:02.520Z,9.50
2022-10-24T14:12:04.932Z,14.10
2022-10-24T14:13:10.522Z,0.40
2022-10-24T14:15:34.505Z,14.60
2022-10-24T14:16:36.768Z,13.10
2022-10-24T14:17:38.682Z,13.00
2022-10-24T14:18:42.949Z,13.11
2022-10-24T14:19:57.120Z,14.50
2022-10-24T14:21:01.961Z,14.40
2022-10-24T14:22:07.502Z,8.60
2022-10-24T14:23:26.349Z,12.60
2022-10-24T14:24:30.657Z,12.20
2022-10-24T14:25:37.069Z,13.00
2022-10-24T14:26:41.126Z,13.40
2022-10-24T14:27:44.643Z,13.80
2022-10-24T14:28:50.857Z,13.00
2022-10-24T14:29:59.587Z,11.50
2022-10-24T14:31:06.453Z,13.70
2022-10-24T14:32:13.696Z,13.50
2022-10-24T14:33:19.325Z,13.70
2022-10-24T14:34:22.352Z,13.80
2022-10-24T14:35:24.832Z,15.20
2022-10-24T14:36:32.111Z,13.30
2022-10-24T14:37:38.837Z,13.60
2022-10-24T14:38:45.798Z,15.10
2022-10-24T14:39:47.973Z,13.20
2022-10-24T14:41:01.255Z,15.80
2022-10-24T14:41:55.542Z,12.70
2022-10-24T14:43:01.461Z,15.10
2022-10-24T14:44:05.833Z,16.40
2022-10-24T14:45:24.090Z,16.60
2022-10-24T14:46:33.294Z,14.80
2022-10-24T14:47:38.684Z,14.70
2022-10-24T14:48:43.803Z,13.90
2022-10-24T14:49:46.090Z,15.30
2022-10-24T14:50:48.195Z,17.90
2022-10-24T14:52:55.114Z,17.70
2022-10-24T14:53:57.692Z,15.00
2022-10-24T14:55:05.911Z,18.80
2022-10-24T14:56:21.147Z,18.10
2022-10-24T14:57:23.498Z,17.60
2022-10-24T14:58:28.609Z,15.60
2022-10-24T14:59:36.850Z,14.80
2022-10-24T15:00:39.870Z,16.30
2022-10-24T15:01:45.489Z,15.50
2022-10-24T15:02:51.316Z,16.10
2022-10-24T15:03:59.278Z,15.00
2022-10-24T15:05:22.923Z,16.30
2022-10-24T15:06:28.080Z,16.20
2022-10-24T15:07:34.740Z,16.80
2022-10-24T15:08:39.272Z,14.60
2022-10-24T15:09:59.106Z,17.30
2022-10-24T15:11:07.658Z,16.10
2022-10-24T15:12:12.355Z,18.00
2022-10-24T15:13:17.903Z,15.60
2022-10-24T15:14:39.048Z,15.50
2022-10-24T15:15:51.111Z,19.00
2022-10-24T15:16:54.106Z,18.40
2022-10-24T15:18:00.977Z,16.73
2022-10-24T15:19:04.788Z,19.50
2022-10-24T15:20:11.045Z,19.20
2022-10-24T15:21:16.449Z,19.40
2022-10-24T15:22:24.742Z,19.50
2022-10-24T15:23:39.348Z,20.00
2022-10-24T15:24:44.398Z,5.50
2022-10-24T15:25:51.180Z,18.20
2022-10-24T15:27:09.153Z,17.30
2022-10-24T15:28:20.344Z,15.90
2022-10-24T15:29:22.689Z,15.90
2022-10-24T15:30:32.846Z,16.80
2022-10-24T15:31:37.585Z,16.10
2022-10-24T15:32:39.542Z,16.80
2022-10-24T15:33:41.961Z,15.00
2022-10-24T15:34:44.694Z,16.20
2022-10-24T15:35:50.300Z,17.20
2022-10-24T15:36:53.816Z,18.00
2022-10-24T15:38:05.642Z,15.80
2022-10-24T15:39:14.576Z,18.60
2022-10-24T15:40:23.086Z,14.60
2022-10-24T15:41:26.473Z,16.60
2022-10-24T15:42:28.442Z,17.00
2022-10-24T15:43:30.072Z,15.33
2022-10-24T15:44:32.269Z,16.67
2022-10-24T15:45:34.040Z,15.40
2022-10-24T15:46:36.371Z,15.78
2022-10-24T15:47:39.227Z,17.30
2022-10-24T15:48:41.669Z,17.20
2022-10-24T15:49:43.811Z,15.10
2022-10-24T15:50:47.192Z,13.70
2022-10-24T15:51:51.109Z,15.40
2022-10-24T15:52:55.804Z,15.50
2022-10-24T15:53:58.704Z,15.90
2022-10-24T15:55:01.636Z,15.50
2022-10-24T15:56:04.407Z,17.00
2022-10-24T15:57:06.385Z,15.90
2022-10-24T15:58:11.634Z,17.20
2022-10-24T15:59:15.341Z,17.90
2022-10-24T16:00:21.768Z,16.60
2022-10-24T16:01:30.973Z,18.20
2022-10-24T16:02:33.841Z,18.10
2022-10-24T16:03:35.864Z,17.91
2022-10-24T16:04:38.945Z,16.20
2022-10-24T16:05:45.600Z,16.70
2022-10-24T16:06:49.718Z,18.80
2022-10-24T16:07:58.731Z,17.50
2022-10-24T16:09:04.267Z,16.20
2022-10-24T16:10:08.152Z,15.60
2022-10-24T16:11:11.553Z,16.50
2022-10-24T16:12:13.966Z,18.00
2022-10-24T16:13:17.614Z,18.30
2022-10-24T16:14:21.247Z,17.50
2022-10-24T16:15:27.568Z,15.00
2022-10-24T16:16:29.554Z,17.60
2022-10-24T16:17:32.386Z,16.67
2022-10-24T16:18:34.662Z,17.73
2022-10-24T16:19:38.498Z,18.70
2022-10-24T16:20:42.723Z,16.80
2022-10-24T16:21:45.100Z,17.70
2022-10-24T16:22:47.759Z,18.90
2022-10-24T16:24:54.019Z,19.90
2022-10-24T16:25:56.030Z,18.90
2022-10-24T16:26:58.956Z,20.30
2022-10-24T16:28:01.586Z,20.30
2022-10-24T16:29:04.359Z,20.30
2022-10-24T16:30:08.126Z,20.20
2022-10-24T16:31:12.961Z,20.70
2022-10-24T16:32:15.901Z,21.20
2022-10-24T16:33:19.724Z,20.40
2022-10-24T16:34:22.212Z,21.20
2022-10-24T16:35:30.587Z,24.70
2022-10-24T16:36:33.694Z,28.10
2022-10-24T16:37:36.080Z,28.70
2022-10-24T16:38:37.925Z,29.11
2022-10-24T16:39:39.691Z,30.11
2022-10-24T16:40:45.046Z,28.00
2022-10-24T16:41:46.974Z,29.50
2022-10-24T16:42:50.957Z,25.89
2022-10-24T16:43:57.276Z,24.20
2022-10-24T16:44:59.474Z,21.10
2022-10-24T16:46:02.409Z,24.78
2022-10-24T16:47:05.415Z,24.30
2022-10-24T16:48:07.766Z,25.80
2022-10-24T16:49:10.987Z,24.30
2022-10-24T16:50:16.816Z,22.40
2022-10-24T16:51:22.349Z,23.90
2022-10-24T16:52:25.080Z,20.60
2022-10-24T16:53:27.163Z,22.00
2022-10-24T16:54:29.072Z,22.30
2022-10-24T16:55:31.971Z,21.67
2022-10-24T16:56:34.165Z,21.70
2022-10-24T16:57:36.466Z,21.60
2022-10-24T16:58:41.223Z,20.60
2022-10-24T16:59:43.990Z,20.00
2022-10-24T17:00:47.599Z,21.90
2022-10-24T17:01:49.926Z,20.90
2022-10-24T17:02:55.386Z,21.70
2022-10-24T17:03:57.368Z,21.20
2022-10-24T17:04:59.730Z,22.00
2022-10-24T17:06:02.269Z,19.80
2022-10-24T17:07:04.282Z,21.00
2022-10-24T17:08:06.229Z,21.50
2022-10-24T17:09:08.005Z,20.44
2022-10-24T17:10:12.328Z,18.20
2022-10-24T17:11:43.257Z,21.30
2022-10-24T17:12:19.412Z,19.50
2022-10-24T17:13:21.826Z,20.10
2022-10-24T17:14:23.723Z,20.30
2022-10-24T17:15:25.608Z,20.22
2022-10-24T17:16:27.817Z,19.80
2022-10-24T17:17:30.687Z,18.80
2022-10-24T17:18:32.800Z,20.30
2022-10-24T19:10:23.842Z,27.40
2022-10-24T19:11:26.600Z,27.40
2022-10-24T19:12:29.142Z,27.40
2022-10-24T19:13:31.153Z,26.00
2022-10-24T19:14:33.465Z,26.78
2022-10-24T19:15:39.750Z,25.80
2022-10-24T19:16:43.379Z,25.70
2022-10-24T19:17:47.246Z,24.40
2022-10-24T19:18:55.301Z,24.10
2022-10-24T19:19:57.167Z,23.20
2022-10-24T19:21:00.822Z,23.78
2022-10-24T19:22:02.785Z,22.00
2022-10-24T19:23:06.339Z,22.20
2022-10-24T19:24:11.073Z,22.00
2022-10-24T19:25:15.585Z,21.70
2022-10-24T19:26:20.190Z,18.90
2022-10-24T19:27:22.819Z,20.70
2022-10-24T19:28:26.181Z,20.18
2022-10-24T19:29:28.522Z,20.90
2022-10-24T19:30:30.860Z,20.70
2022-10-24T19:31:33.469Z,17.20
2022-10-24T19:32:36.592Z,20.00
2022-10-24T19:33:38.838Z,21.55
2022-10-24T19:34:42.089Z,21.30
2022-10-24T19:35:45.040Z,21.30
2022-10-24T19:36:49.546Z,20.80
2022-10-24T19:37:51.813Z,21.50
2022-10-24T19:38:54.923Z,21.10
2022-10-24T19:39:56.844Z,22.10
2022-10-24T19:40:59.605Z,23.00
2022-10-24T19:42:02.707Z,22.30
2022-10-24T19:43:05.219Z,21.30
2022-10-24T19:44:07.343Z,21.90
2022-10-24T19:45:09.466Z,20.40
2022-10-24T19:46:19.670Z,22.00
2022-10-24T19:47:17.227Z,20.30
2022-10-24T19:48:20.617Z,22.40
2022-10-24T19:49:23.565Z,20.40
2022-10-24T19:50:25.422Z,20.27
2022-10-24T19:51:27.444Z,17.89
2022-10-24T19:52:29.380Z,20.00
2022-10-24T19:53:35.070Z,18.78
2022-10-24T19:54:37.271Z,19.90
2022-10-24T19:55:39.530Z,20.70
2022-10-24T19:56:42.782Z,12.60
2022-10-24T19:57:47.072Z,17.20
2022-10-24T19:58:50.615Z,18.10
2022-10-24T19:59:53.837Z,18.40
2022-10-24T20:01:05.185Z,19.10
2022-10-24T20:02:07.269Z,16.70
2022-10-24T20:03:09.228Z,16.56
2022-10-24T20:04:11.987Z,20.00
2022-10-24T20:05:13.959Z,13.27
2022-10-24T20:06:16.792Z,18.10
2022-10-24T20:07:19.180Z,20.60
2022-10-24T20:08:21.985Z,18.50
2022-10-24T20:09:24.014Z,6.90
2022-10-24T20:10:26.324Z,19.10
2022-10-24T20:11:29.207Z,18.40
2022-10-24T20:12:31.344Z,20.20
2022-10-24T20:13:36.953Z,20.78
2022-10-24T20:14:42.261Z,20.30
2022-10-24T20:15:46.787Z,18.00
2022-10-24T20:16:48.856Z,12.70
2022-10-24T20:17:53.191Z,18.40
2022-10-24T20:18:56.278Z,20.30
2022-10-24T20:19:58.148Z,21.10
2022-10-24T20:21:06.163Z,21.44
2022-10-24T20:22:09.281Z,21.70
2022-10-24T20:23:11.234Z,19.70
2022-10-24T20:24:13.145Z,18.11
2022-10-24T20:25:21.414Z,20.60
2022-10-24T20:26:25.529Z,20.70
2022-10-24T20:27:33.439Z,20.30
2022-10-24T20:28:38.074Z,16.40